Danica\sunbeam — OUVD2 — position and weather

sailwx.info

Track history (hours):
 
Tides and Currents Weather Stations Pressure Air Temp Water Temp Dewpoint Dewpoint Depression Visibility Wind Speed Wind Dir Waves Ship Positions

Danica\sunbeam

Last reported at 2018-Feb-18 00:24 UTC. Time now 2018-Feb-20 13:32 UTC.
Position N 25°28' W 079°46'.

Length 66 m; draft 2.9 m.

Type: Cargo ship. MMSI: 219208000.

Date/timePositionNaut miles runAvg speedWind from/ knotsBaromVisibWave heightAir tempDewpointWater temp
2018-Feb-18 00:24N 25°28' W 079°46'2 5.9
2018-Feb-18 00:00N 25°30' W 079°48'3 5.8
2018-Feb-17 23:30N 25°32' W 079°50'3 5.3
2018-Feb-17 23:01N 25°34' W 079°52'2 4.9
2018-Feb-17 22:30N 25°36' W 079°53'2 4.8
2018-Feb-17 22:01N 25°37' W 079°55'2 5.0
2018-Feb-17 21:31N 25°39' W 079°57'3 5.4
2018-Feb-17 21:01N 25°41' W 079°60'3 5.9
2018-Feb-17 20:31N 25°43' W 080°02'3 6.8
2018-Feb-17 20:00N 25°46' W 080°04'4 7.4
2018-Feb-17 19:31N 25°46' W 080°08'3 6.2
2018-Feb-17 19:00N 25°46' W 080°12'2 3.4
2018-Feb-17 18:31N 25°47' W 080°13'2 3.2
2018-Feb-17 18:00N 25°48' W 080°15'1 1.3
2018-Feb-17 17:30N 25°48' W 080°15'0 0.0
2018-Feb-17 17:00N 25°48' W 080°15'0 0.0
2018-Feb-17 16:30N 25°48' W 080°15'0 0.0
2018-Feb-17 16:00N 25°48' W 080°15'0 0.0
2018-Feb-17 15:30N 25°48' W 080°15'0 0.0
2018-Feb-17 15:00N 25°48' W 080°15'0 0.0
2018-Feb-17 14:30N 25°48' W 080°15'0 0.0
2018-Feb-17 14:00N 25°48' W 080°15'0 0.0
2018-Feb-17 13:30N 25°48' W 080°15'0 0.0
2018-Feb-17 13:00N 25°48' W 080°15'0 0.0
2018-Feb-17 12:30N 25°48' W 080°15'0 0.0
2018-Feb-17 12:00N 25°48' W 080°15'0 0.0
2018-Feb-17 11:30N 25°48' W 080°15'0 0.0
2018-Feb-17 11:00N 25°48' W 080°15'0 0.0
2018-Feb-17 10:30N 25°48' W 080°15'0 0.0
2018-Feb-17 09:57N 25°48' W 080°15'0 0.0
2018-Feb-17 09:30N 25°48' W 080°15'0 0.0
2018-Feb-17 09:00N 25°48' W 080°15'0 0.0
2018-Feb-17 08:30N 25°48' W 080°15'0 0.0
2018-Feb-17 08:00N 25°48' W 080°15'0 0.0
2018-Feb-17 07:26N 25°48' W 080°15'0 0.0
2018-Feb-17 06:59N 25°48' W 080°15'0 0.0
2018-Feb-17 06:29N 25°48' W 080°15'0 0.0
2018-Feb-17 05:59N 25°48' W 080°15'0 0.0
2018-Feb-17 05:29N 25°48' W 080°15'0 0.0
2018-Feb-17 04:59N 25°48' W 080°15'0 0.0
2018-Feb-17 04:29N 25°48' W 080°15'0 0.0
2018-Feb-17 03:50N 25°48' W 080°15'0 0.0
2018-Feb-17 03:29N 25°48' W 080°15'0 0.0
2018-Feb-17 02:59N 25°48' W 080°15'0 0.0
2018-Feb-17 02:29N 25°48' W 080°15'0 0.0
2018-Feb-17 01:59N 25°48' W 080°15'0 0.0
2018-Feb-17 01:26N 25°48' W 080°15'0 0.0
2018-Feb-17 00:56N 25°48' W 080°15'0 0.0
2018-Feb-17 00:29N 25°48' W 080°15'0 0.0
2018-Feb-16 23:59N 25°48' W 080°15'0 0.0
2018-Feb-16 23:26N 25°48' W 080°15'0 0.0
2018-Feb-16 22:56N 25°48' W 080°15'0 0.0
2018-Feb-16 22:29N 25°48' W 080°15'0 0.0
2018-Feb-16 21:59N 25°48' W 080°15'0 0.0
2018-Feb-16 21:29N 25°48' W 080°15'0 0.0
2018-Feb-16 20:59N 25°48' W 080°15'0 0.0
2018-Feb-16 20:26N 25°48' W 080°15'0 0.0
2018-Feb-16 19:56N 25°48' W 080°15'0 0.0
2018-Feb-16 19:26N 25°48' W 080°15'0 0.0
2018-Feb-16 18:56N 25°48' W 080°15'0 0.0
2018-Feb-16 18:29N 25°48' W 080°15'0 0.0
2018-Feb-16 17:59N 25°48' W 080°15'0 0.0
2018-Feb-16 17:29N 25°48' W 080°15'0 0.0
2018-Feb-16 16:59N 25°48' W 080°15'0 0.0
2018-Feb-16 16:26N 25°48' W 080°15'0 0.0
2018-Feb-16 15:59N 25°48' W 080°15'0 0.0
2018-Feb-16 15:29N 25°48' W 080°15'0 0.0
2018-Feb-16 14:59N 25°48' W 080°15'0 0.0
2018-Feb-16 14:29N 25°48' W 080°15'0 0.0
2018-Feb-16 13:59N 25°48' W 080°15'0 0.0
2018-Feb-16 13:28N 25°48' W 080°15'0 0.0
2018-Feb-16 12:58N 25°48' W 080°15'0 0.0
2018-Feb-16 12:28N 25°48' W 080°15'0 0.0
2018-Feb-16 11:58N 25°48' W 080°15'0 0.0
2018-Feb-16 11:28N 25°48' W 080°15'0 0.0
2018-Feb-16 10:58N 25°48' W 080°15'0 0.0
2018-Feb-16 10:28N 25°48' W 080°15'0 0.0
2018-Feb-16 09:58N 25°48' W 080°15'0 0.0
2018-Feb-16 09:28N 25°48' W 080°15'0 0.0
2018-Feb-16 08:58N 25°48' W 080°15'0 0.0
2018-Feb-16 08:28N 25°48' W 080°15'0 0.0
2018-Feb-16 07:58N 25°48' W 080°15'0 0.0
2018-Feb-16 07:28N 25°48' W 080°15'0 0.0
2018-Feb-16 06:58N 25°48' W 080°15'0 0.0
2018-Feb-16 06:28N 25°48' W 080°15'0 0.0
2018-Feb-16 05:58N 25°48' W 080°15'0 0.0
2018-Feb-16 05:28N 25°48' W 080°15'0 0.0
2018-Feb-16 04:55N 25°48' W 080°15'0 0.0
2018-Feb-16 04:30N 25°48' W 080°15'0 0.0
2018-Feb-16 04:00N 25°48' W 080°15'0 0.0
2018-Feb-16 03:30N 25°48' W 080°15'0 0.0
2018-Feb-16 02:51N 25°48' W 080°15'0 0.0
2018-Feb-16 02:30N 25°48' W 080°15'0 0.0
2018-Feb-16 02:00N 25°48' W 080°15'0 0.0
2018-Feb-16 01:27N 25°48' W 080°15'0 0.0
2018-Feb-16 01:00N 25°48' W 080°15'0 0.0
2018-Feb-16 00:30N 25°48' W 080°15'0 0.0
2018-Feb-16 00:00N 25°48' W 080°15'0 0.0
2018-Feb-15 23:30N 25°48' W 080°15'0 0.0
2018-Feb-15 23:00N 25°48' W 080°15'0 0.0
2018-Feb-15 22:30N 25°48' W 080°15'0 0.0
2018-Feb-15 22:00N 25°48' W 080°15'0 0.0
2018-Feb-15 21:30N 25°48' W 080°15'0 0.0
2018-Feb-15 21:00N 25°48' W 080°15'0 0.0
2018-Feb-15 20:30N 25°48' W 080°15'0 0.0
2018-Feb-15 20:00N 25°48' W 080°15'0 0.0
2018-Feb-15 19:30N 25°48' W 080°15'0 0.0
2018-Feb-15 19:00N 25°48' W 080°15'0 0.0
2018-Feb-15 18:30N 25°48' W 080°15'0 0.0
2018-Feb-15 18:00N 25°48' W 080°15'0 0.0
2018-Feb-15 17:30N 25°48' W 080°15'0 0.0
2018-Feb-15 17:00N 25°48' W 080°15'0 0.0
2018-Feb-15 16:30N 25°48' W 080°15'0 0.0
2018-Feb-15 16:00N 25°48' W 080°15'0 0.0
2018-Feb-15 15:30N 25°48' W 080°15'0 0.0
2018-Feb-15 15:00N 25°48' W 080°15'0 0.0
2018-Feb-15 14:30N 25°48' W 080°15'0 0.0
2018-Feb-15 14:00N 25°48' W 080°15'0 0.0
2018-Feb-15 13:30N 25°48' W 080°15'0 0.0
2018-Feb-15 13:00N 25°48' W 080°15'0 0.0
2018-Feb-15 12:30N 25°48' W 080°15'0 0.0
2018-Feb-15 11:54N 25°48' W 080°15'0 0.0
2018-Feb-15 11:30N 25°48' W 080°15'0 0.0
2018-Feb-15 11:00N 25°48' W 080°15'0 0.0
2018-Feb-15 10:30N 25°48' W 080°15'0 0.0
2018-Feb-15 09:53N 25°48' W 080°15'0 0.0
2018-Feb-15 09:29N 25°48' W 080°15'0 0.0
2018-Feb-15 08:59N 25°48' W 080°15'0 0.0
2018-Feb-15 08:29N 25°48' W 080°15'0 0.0
2018-Feb-15 07:59N 25°48' W 080°15'0 0.0
2018-Feb-15 07:29N 25°48' W 080°15'0 0.0
2018-Feb-15 06:56N 25°48' W 080°15'0 0.0
2018-Feb-15 06:29N 25°48' W 080°15'0 0.0
2018-Feb-15 05:59N 25°48' W 080°15'0 0.0
2018-Feb-15 05:29N 25°48' W 080°15'0 0.0
2018-Feb-15 04:59N 25°48' W 080°15'0 0.0
2018-Feb-15 04:29N 25°48' W 080°15'0 0.0
2018-Feb-15 03:59N 25°48' W 080°15'0 0.0
2018-Feb-15 03:26N 25°48' W 080°15'0 0.0
2018-Feb-15 02:56N 25°48' W 080°15'0 0.0
2018-Feb-15 02:29N 25°48' W 080°15'0 0.0
2018-Feb-15 01:59N 25°48' W 080°15'0 0.0
2018-Feb-15 01:29N 25°48' W 080°15'0 0.0
2018-Feb-15 00:59N 25°48' W 080°15'0 0.0
2018-Feb-15 00:29N 25°48' W 080°15'0 0.0
2018-Feb-14 23:59N 25°48' W 080°15'0 0.0
2018-Feb-14 23:28N 25°48' W 080°15'0 0.0
2018-Feb-14 22:58N 25°48' W 080°15'0 0.0
2018-Feb-14 22:28N 25°48' W 080°15'0 0.0
2018-Feb-14 21:58N 25°48' W 080°15'0 0.0
2018-Feb-14 21:22N 25°48' W 080°15'0 0.0
2018-Feb-14 20:58N 25°48' W 080°15'0 0.0
2018-Feb-14 20:28N 25°48' W 080°15'0 0.0
2018-Feb-14 19:58N 25°48' W 080°15'0 0.0
2018-Feb-14 19:28N 25°48' W 080°15'0 0.0
2018-Feb-14 18:58N 25°48' W 080°15'0 0.0
2018-Feb-14 18:30N 25°48' W 080°15'0 0.0
2018-Feb-14 17:52N 25°48' W 080°15'0 0.0
2018-Feb-14 17:28N 25°48' W 080°15'0 0.0
2018-Feb-14 17:01N 25°48' W 080°15'0 0.0
2018-Feb-14 16:25N 25°48' W 080°15'0 0.0
2018-Feb-14 15:57N 25°48' W 080°15'0 0.0
2018-Feb-14 15:30N 25°48' W 080°15'0 0.0
2018-Feb-14 15:00N 25°48' W 080°15'0 0.0
2018-Feb-14 14:30N 25°48' W 080°15'0 0.0
2018-Feb-14 14:00N 25°48' W 080°15'0 0.0
2018-Feb-14 13:30N 25°48' W 080°15'0 0.0
2018-Feb-14 13:00N 25°48' W 080°15'0 0.0
2018-Feb-14 12:30N 25°48' W 080°15'0 0.0
2018-Feb-14 12:00N 25°48' W 080°15'0 0.0
2018-Feb-14 11:30N 25°48' W 080°15'0 0.0
2018-Feb-14 11:00N 25°48' W 080°15'0 0.0
2018-Feb-14 10:30N 25°48' W 080°15'0 0.0
2018-Feb-14 10:00N 25°48' W 080°15'0 0.0
2018-Feb-14 09:27N 25°48' W 080°15'0 0.0
2018-Feb-14 09:00N 25°48' W 080°15'0 0.0
2018-Feb-14 08:30N 25°48' W 080°15'0 0.0
2018-Feb-14 08:00N 25°48' W 080°15'0 0.0
2018-Feb-14 07:30N 25°48' W 080°15'0 0.0
2018-Feb-14 07:00N 25°48' W 080°15'0 0.0
2018-Feb-14 06:27N 25°48' W 080°15'0 0.0
2018-Feb-14 06:00N 25°48' W 080°15'0 0.0
2018-Feb-14 05:27N 25°48' W 080°15'0 0.0
2018-Feb-14 05:00N 25°48' W 080°15'0 0.0
2018-Feb-14 04:30N 25°48' W 080°15'0 0.0
2018-Feb-14 04:00N 25°48' W 080°15'0 0.0
2018-Feb-14 03:30N 25°48' W 080°15'0 0.0
2018-Feb-14 03:00N 25°48' W 080°15'0 0.0
2018-Feb-14 02:30N 25°48' W 080°15'0 0.0
2018-Feb-14 02:00N 25°48' W 080°15'0 0.0
2018-Feb-14 01:30N 25°48' W 080°15'0 0.0
2018-Feb-14 01:00N 25°48' W 080°15'0 0.0
2018-Feb-14 00:30N 25°48' W 080°15'0 0.1
2018-Feb-14 00:00N 25°48' W 080°15'0 0.1
2018-Feb-13 23:27N 25°48' W 080°15'0 0.0
2018-Feb-13 23:00N 25°48' W 080°15'0 0.0
2018-Feb-13 22:30N 25°48' W 080°15'0 0.0
2018-Feb-13 22:00N 25°48' W 080°15'0 0.0
2018-Feb-13 21:26N 25°48' W 080°15'0 0.0
2018-Feb-13 20:56N 25°48' W 080°15'0 0.0
2018-Feb-13 20:29N 25°48' W 080°15'0 0.0
2018-Feb-13 19:56N 25°48' W 080°15'0 0.0
2018-Feb-13 19:29N 25°48' W 080°15'0 0.0
2018-Feb-13 18:59N 25°48' W 080°15'0 0.0
2018-Feb-13 18:26N 25°48' W 080°15'0 0.0
2018-Feb-13 17:56N 25°48' W 080°15'0 0.0
2018-Feb-13 17:29N 25°48' W 080°15'0 0.0
2018-Feb-13 16:59N 25°48' W 080°15'0 0.0
2018-Feb-13 16:29N 25°48' W 080°15'0 0.0
2018-Feb-13 15:59N 25°48' W 080°15'0 0.0
2018-Feb-13 15:29N 25°48' W 080°15'0 0.0
2018-Feb-13 14:59N 25°48' W 080°15'0 0.0
2018-Feb-13 14:29N 25°48' W 080°15'0 0.0
2018-Feb-13 13:59N 25°48' W 080°15'0 0.0
2018-Feb-13 13:29N 25°48' W 080°15'0 0.0
2018-Feb-13 12:59N 25°48' W 080°15'0 0.0
2018-Feb-13 12:29N 25°48' W 080°15'0 0.0
2018-Feb-13 11:59N 25°48' W 080°15'0 0.0
2018-Feb-13 11:29N 25°48' W 080°15'0 0.0
2018-Feb-13 10:59N 25°48' W 080°15'0 0.0
2018-Feb-13 10:29N 25°48' W 080°15'0 0.0
2018-Feb-13 09:59N 25°48' W 080°15'0 0.0
2018-Feb-13 09:29N 25°48' W 080°15'0 0.0
2018-Feb-13 08:59N 25°48' W 080°15'0 0.0
2018-Feb-13 08:29N 25°48' W 080°15'0 0.0
2018-Feb-13 07:59N 25°48' W 080°15'0 0.0
2018-Feb-13 07:29N 25°48' W 080°15'0 0.0
2018-Feb-13 06:59N 25°48' W 080°15'0 0.0
2018-Feb-13 06:29N 25°48' W 080°15'0 0.0
2018-Feb-13 05:56N 25°48' W 080°15'0 0.0
2018-Feb-13 05:29N 25°48' W 080°15'0 0.0
2018-Feb-13 04:55N 25°48' W 080°15'0 0.0
2018-Feb-13 04:28N 25°48' W 080°15'0 0.0
2018-Feb-13 03:58N 25°48' W 080°15'0 0.0
2018-Feb-13 03:22N 25°48' W 080°15'0 0.0
2018-Feb-13 02:58N 25°48' W 080°15'0 0.0
2018-Feb-13 02:22N 25°48' W 080°15'0 0.0
2018-Feb-13 01:52N 25°48' W 080°15'0 0.0
2018-Feb-13 01:28N 25°48' W 080°15'0 0.0
2018-Feb-13 00:58N 25°48' W 080°15'0 0.0
2018-Feb-13 00:28N 25°48' W 080°15'0 0.0
2018-Feb-12 23:55N 25°48' W 080°15'0 0.0
2018-Feb-12 23:28N 25°48' W 080°15'0 0.0
2018-Feb-12 22:58N 25°48' W 080°15'0 0.0
2018-Feb-12 22:28N 25°48' W 080°15'0 0.0
2018-Feb-12 21:58N 25°48' W 080°15'0 0.0
2018-Feb-12 21:28N 25°48' W 080°15'0 0.0
2018-Feb-12 20:58N 25°48' W 080°15'0 0.0
2018-Feb-12 20:28N 25°48' W 080°15'0 0.0
2018-Feb-12 19:58N 25°48' W 080°15'0 0.0
2018-Feb-12 19:25N 25°48' W 080°15'0 0.0
2018-Feb-12 18:58N 25°48' W 080°15'0 0.0
2018-Feb-12 18:25N 25°48' W 080°15'0 0.0
2018-Feb-12 17:58N 25°48' W 080°15'0 0.0
2018-Feb-12 17:28N 25°48' W 080°15'0 0.0
2018-Feb-12 16:58N 25°48' W 080°15'0 0.0
2018-Feb-12 16:28N 25°48' W 080°15'0 0.0
2018-Feb-12 15:55N 25°48' W 080°15'0 0.0
2018-Feb-12 15:25N 25°48' W 080°15'0 0.0
2018-Feb-12 14:58N 25°48' W 080°15'0 0.0
2018-Feb-12 14:28N 25°48' W 080°15'0 0.0
2018-Feb-12 13:58N 25°48' W 080°15'0 0.0
2018-Feb-12 13:28N 25°48' W 080°15'0 0.0
2018-Feb-12 12:58N 25°48' W 080°15'0 0.0
2018-Feb-12 12:28N 25°48' W 080°15'0 0.0
2018-Feb-12 11:58N 25°48' W 080°15'0 0.0
2018-Feb-12 11:28N 25°48' W 080°15'0 0.0
2018-Feb-12 10:55N 25°48' W 080°15'0 0.0
2018-Feb-12 10:28N 25°48' W 080°15'0 0.0
2018-Feb-12 09:58N 25°48' W 080°15'0 0.0
2018-Feb-12 09:30N 25°48' W 080°15'0 0.0
2018-Feb-12 09:00N 25°48' W 080°15'0 0.0
2018-Feb-12 08:30N 25°48' W 080°15'0 0.0
2018-Feb-12 08:00N 25°48' W 080°15'0 0.0
2018-Feb-12 07:30N 25°48' W 080°15'0 0.0
2018-Feb-12 07:00N 25°48' W 080°15'0 0.0
2018-Feb-12 06:30N 25°48' W 080°15'0 0.0
2018-Feb-12 06:00N 25°48' W 080°15'0 0.0
2018-Feb-12 05:30N 25°48' W 080°15'0 0.0
2018-Feb-12 05:00N 25°48' W 080°15'0 0.0
2018-Feb-12 04:30N 25°48' W 080°15'0 0.0
2018-Feb-12 04:00N 25°48' W 080°15'0 0.0
2018-Feb-12 03:30N 25°48' W 080°15'0 0.0
2018-Feb-12 03:00N 25°48' W 080°15'0 0.0
2018-Feb-12 02:27N 25°48' W 080°15'0 0.0
2018-Feb-12 01:57N 25°48' W 080°15'0 0.0
2018-Feb-12 01:30N 25°48' W 080°15'0 0.0
2018-Feb-12 00:57N 25°48' W 080°15'0 0.0
2018-Feb-12 00:30N 25°48' W 080°15'0 0.0
2018-Feb-11 23:59N 25°48' W 080°15'0 0.0
2018-Feb-11 23:29N 25°48' W 080°15'0 0.0
2018-Feb-11 22:59N 25°48' W 080°15'0 0.0
2018-Feb-11 22:23N 25°48' W 080°15'0 0.0
2018-Feb-11 21:59N 25°48' W 080°15'0 0.0
2018-Feb-11 21:29N 25°48' W 080°15'0 0.0
2018-Feb-11 20:59N 25°48' W 080°15'0 0.0
2018-Feb-11 20:29N 25°48' W 080°15'0 0.0
2018-Feb-11 19:59N 25°48' W 080°15'0 0.0
2018-Feb-11 19:29N 25°48' W 080°15'0 0.0
2018-Feb-11 18:59N 25°48' W 080°15'0 0.0
2018-Feb-11 18:29N 25°48' W 080°15'0 0.0
2018-Feb-11 17:59N 25°48' W 080°15'0 0.0
2018-Feb-11 17:29N 25°48' W 080°15'0 0.0
2018-Feb-11 16:59N 25°48' W 080°15'0 0.0
2018-Feb-11 16:29N 25°48' W 080°15'0 0.0
2018-Feb-11 15:56N 25°48' W 080°15'0 0.0
2018-Feb-11 15:29N 25°48' W 080°15'0 0.0
2018-Feb-11 14:59N 25°48' W 080°15'0 0.0
2018-Feb-11 14:26N 25°48' W 080°15'0 0.0
2018-Feb-11 13:56N 25°48' W 080°15'0 0.0
2018-Feb-11 13:29N 25°48' W 080°15'0 0.0
2018-Feb-11 12:56N 25°48' W 080°15'0 0.0
2018-Feb-11 12:29N 25°48' W 080°15'0 0.0
2018-Feb-11 11:59N 25°48' W 080°15'0 0.0
2018-Feb-11 11:29N 25°48' W 080°15'0 0.0
2018-Feb-11 10:59N 25°48' W 080°15'0 0.0
2018-Feb-11 10:29N 25°48' W 080°15'0 0.0
2018-Feb-11 09:59N 25°48' W 080°15'0 0.0
2018-Feb-11 09:29N 25°48' W 080°15'0 0.0
2018-Feb-11 08:59N 25°48' W 080°15'0 0.0
2018-Feb-11 08:29N 25°48' W 080°15'0 0.0
2018-Feb-11 07:59N 25°48' W 080°15'0 0.0
2018-Feb-11 07:29N 25°48' W 080°15'0 0.0
2018-Feb-11 06:59N 25°48' W 080°15'0 0.0
2018-Feb-11 06:29N 25°48' W 080°15'0 0.0
2018-Feb-11 05:59N 25°48' W 080°15'0 0.0
2018-Feb-11 05:29N 25°48' W 080°15'0 0.0
2018-Feb-11 04:56N 25°48' W 080°15'0 0.0
2018-Feb-11 04:29N 25°48' W 080°15'0 0.0
2018-Feb-11 03:59N 25°48' W 080°15'0 0.0
2018-Feb-11 03:29N 25°48' W 080°15'0 0.0
2018-Feb-11 02:59N 25°48' W 080°15'0 0.0
2018-Feb-11 02:29N 25°48' W 080°15'0 0.0
2018-Feb-11 01:59N 25°48' W 080°15'0 0.0
2018-Feb-11 01:29N 25°48' W 080°15'0 0.0
2018-Feb-11 00:59N 25°48' W 080°15'0 0.0
2018-Feb-11 00:29N 25°48' W 080°15'0 0.0
2018-Feb-10 23:59N 25°48' W 080°15'0 0.0
2018-Feb-10 23:29N 25°48' W 080°15'0 0.0
2018-Feb-10 22:59N 25°48' W 080°15'0 0.0
2018-Feb-10 22:29N 25°48' W 080°15'0 0.0
2018-Feb-10 21:59N 25°48' W 080°15'0 0.0
2018-Feb-10 21:29N 25°48' W 080°15'0 0.0
2018-Feb-10 20:58N 25°48' W 080°15'0 0.0
2018-Feb-10 20:25N 25°48' W 080°15'0 0.0
2018-Feb-10 19:55N 25°48' W 080°15'0 0.0
2018-Feb-10 19:25N 25°48' W 080°15'0 0.0
2018-Feb-10 18:49N 25°48' W 080°15'0 0.0
2018-Feb-10 18:19N 25°48' W 080°15'0 0.0
2018-Feb-10 17:55N 25°48' W 080°15'0 0.0
2018-Feb-10 17:28N 25°48' W 080°15'0 0.0
2018-Feb-10 16:58N 25°48' W 080°15'0 0.0
2018-Feb-10 16:28N 25°48' W 080°15'0 0.0
2018-Feb-10 15:58N 25°48' W 080°15'0 0.0
2018-Feb-10 15:25N 25°48' W 080°15'0 0.0
2018-Feb-10 14:58N 25°48' W 080°15'0 0.0
2018-Feb-10 14:28N 25°48' W 080°15'0 0.0
2018-Feb-10 13:58N 25°48' W 080°15'0 0.0
2018-Feb-10 13:22N 25°48' W 080°15'0 0.0
2018-Feb-10 12:58N 25°48' W 080°15'0 0.0
2018-Feb-10 12:19N 25°48' W 080°15'0 0.0
2018-Feb-10 11:55N 25°48' W 080°15'0 0.0
2018-Feb-10 11:28N 25°48' W 080°15'0 0.0
2018-Feb-10 10:58N 25°48' W 080°15'0 0.0
2018-Feb-10 10:25N 25°48' W 080°15'0 0.0
2018-Feb-10 09:58N 25°48' W 080°15'0 0.0
2018-Feb-10 09:28N 25°48' W 080°15'0 0.0
2018-Feb-10 08:55N 25°48' W 080°15'0 0.0
2018-Feb-10 08:25N 25°48' W 080°15'0 0.0
2018-Feb-10 07:58N 25°48' W 080°15'0 0.0
2018-Feb-10 07:28N 25°48' W 080°15'0 0.0
2018-Feb-10 06:58N 25°48' W 080°15'0 0.0
2018-Feb-10 06:28N 25°48' W 080°15'0 0.0
2018-Feb-10 05:58N 25°48' W 080°15'0 0.0
2018-Feb-10 05:25N 25°48' W 080°15'0 0.0
2018-Feb-10 04:58N 25°48' W 080°15'0 0.0
2018-Feb-10 04:30N 25°48' W 080°15'0 0.0
2018-Feb-10 04:00N 25°48' W 080°15'0 0.0
2018-Feb-10 03:30N 25°48' W 080°15'0 0.0
2018-Feb-10 03:00N 25°48' W 080°15'0 0.0
2018-Feb-10 02:30N 25°48' W 080°15'0 0.0
2018-Feb-10 01:57N 25°48' W 080°15'0 0.0
2018-Feb-10 01:30N 25°48' W 080°15'0 0.0
2018-Feb-10 01:00N 25°48' W 080°15'0 0.0
2018-Feb-10 00:27N 25°48' W 080°15'0 0.0
2018-Feb-10 00:00N 25°48' W 080°15'0 0.0
2018-Feb-09 23:30N 25°48' W 080°15'0 0.0
2018-Feb-09 23:00N 25°48' W 080°15'0 0.0
2018-Feb-09 22:45N 25°48' W 080°15'0 0.0
2018-Feb-08 01:30N 25°48' W 080°15'0 0.0
2018-Feb-08 00:57N 25°48' W 080°15'0 0.0
2018-Feb-08 00:30N 25°48' W 080°15'  
Track history (hours):
 
Tides and Currents Weather Stations Pressure Air Temp Water Temp Dewpoint Dewpoint Depression Visibility Wind Speed Wind Dir Waves Ship Positions

Danica\sunbeam

Last reported at 2018-Feb-18 00:24 UTC. Time now 2018-Feb-20 13:32 UTC.
Position N 25°28' W 079°46'.

Length 66 m; draft 2.9 m.

Type: Cargo ship. MMSI: 219208000.

Date/timePositionNaut miles runAvg speedWind from/ knotsBaromVisibWave heightAir tempDewpointWater temp
2018-Feb-18 00:24N 25°28' W 079°46'2 5.9
2018-Feb-18 00:00N 25°30' W 079°48'3 5.8
2018-Feb-17 23:30N 25°32' W 079°50'3 5.3
2018-Feb-17 23:01N 25°34' W 079°52'2 4.9
2018-Feb-17 22:30N 25°36' W 079°53'2 4.8
2018-Feb-17 22:01N 25°37' W 079°55'2 5.0
2018-Feb-17 21:31N 25°39' W 079°57'3 5.4
2018-Feb-17 21:01N 25°41' W 079°60'3 5.9
2018-Feb-17 20:31N 25°43' W 080°02'3 6.8
2018-Feb-17 20:00N 25°46' W 080°04'4 7.4
2018-Feb-17 19:31N 25°46' W 080°08'3 6.2
2018-Feb-17 19:00N 25°46' W 080°12'2 3.4
2018-Feb-17 18:31N 25°47' W 080°13'2 3.2
2018-Feb-17 18:00N 25°48' W 080°15'1 1.3
2018-Feb-17 17:30N 25°48' W 080°15'0 0.0
2018-Feb-17 17:00N 25°48' W 080°15'0 0.0
2018-Feb-17 16:30N 25°48' W 080°15'0 0.0
2018-Feb-17 16:00N 25°48' W 080°15'0 0.0
2018-Feb-17 15:30N 25°48' W 080°15'0 0.0
2018-Feb-17 15:00N 25°48' W 080°15'0 0.0
2018-Feb-17 14:30N 25°48' W 080°15'0 0.0
2018-Feb-17 14:00N 25°48' W 080°15'0 0.0
2018-Feb-17 13:30N 25°48' W 080°15'0 0.0
2018-Feb-17 13:00N 25°48' W 080°15'0 0.0
2018-Feb-17 12:30N 25°48' W 080°15'0 0.0
2018-Feb-17 12:00N 25°48' W 080°15'0 0.0
2018-Feb-17 11:30N 25°48' W 080°15'0 0.0
2018-Feb-17 11:00N 25°48' W 080°15'0 0.0
2018-Feb-17 10:30N 25°48' W 080°15'0 0.0
2018-Feb-17 09:57N 25°48' W 080°15'0 0.0
2018-Feb-17 09:30N 25°48' W 080°15'0 0.0
2018-Feb-17 09:00N 25°48' W 080°15'0 0.0
2018-Feb-17 08:30N 25°48' W 080°15'0 0.0
2018-Feb-17 08:00N 25°48' W 080°15'0 0.0
2018-Feb-17 07:26N 25°48' W 080°15'0 0.0
2018-Feb-17 06:59N 25°48' W 080°15'0 0.0
2018-Feb-17 06:29N 25°48' W 080°15'0 0.0
2018-Feb-17 05:59N 25°48' W 080°15'0 0.0
2018-Feb-17 05:29N 25°48' W 080°15'0 0.0
2018-Feb-17 04:59N 25°48' W 080°15'0 0.0
2018-Feb-17 04:29N 25°48' W 080°15'0 0.0
2018-Feb-17 03:50N 25°48' W 080°15'0 0.0
2018-Feb-17 03:29N 25°48' W 080°15'0 0.0
2018-Feb-17 02:59N 25°48' W 080°15'0 0.0
2018-Feb-17 02:29N 25°48' W 080°15'0 0.0
2018-Feb-17 01:59N 25°48' W 080°15'0 0.0
2018-Feb-17 01:26N 25°48' W 080°15'0 0.0
2018-Feb-17 00:56N 25°48' W 080°15'0 0.0
2018-Feb-17 00:29N 25°48' W 080°15'0 0.0
2018-Feb-16 23:59N 25°48' W 080°15'0 0.0
2018-Feb-16 23:26N 25°48' W 080°15'0 0.0
2018-Feb-16 22:56N 25°48' W 080°15'0 0.0
2018-Feb-16 22:29N 25°48' W 080°15'0 0.0
2018-Feb-16 21:59N 25°48' W 080°15'0 0.0
2018-Feb-16 21:29N 25°48' W 080°15'0 0.0
2018-Feb-16 20:59N 25°48' W 080°15'0 0.0
2018-Feb-16 20:26N 25°48' W 080°15'0 0.0
2018-Feb-16 19:56N 25°48' W 080°15'0 0.0
2018-Feb-16 19:26N 25°48' W 080°15'0 0.0
2018-Feb-16 18:56N 25°48' W 080°15'0 0.0
2018-Feb-16 18:29N 25°48' W 080°15'0 0.0
2018-Feb-16 17:59N 25°48' W 080°15'0 0.0
2018-Feb-16 17:29N 25°48' W 080°15'0 0.0
2018-Feb-16 16:59N 25°48' W 080°15'0 0.0
2018-Feb-16 16:26N 25°48' W 080°15'0 0.0
2018-Feb-16 15:59N 25°48' W 080°15'0 0.0
2018-Feb-16 15:29N 25°48' W 080°15'0 0.0
2018-Feb-16 14:59N 25°48' W 080°15'0 0.0
2018-Feb-16 14:29N 25°48' W 080°15'0 0.0
2018-Feb-16 13:59N 25°48' W 080°15'0 0.0
2018-Feb-16 13:28N 25°48' W 080°15'0 0.0
2018-Feb-16 12:58N 25°48' W 080°15'0 0.0
2018-Feb-16 12:28N 25°48' W 080°15'0 0.0
2018-Feb-16 11:58N 25°48' W 080°15'0 0.0
2018-Feb-16 11:28N 25°48' W 080°15'0 0.0
2018-Feb-16 10:58N 25°48' W 080°15'0 0.0
2018-Feb-16 10:28N 25°48' W 080°15'0 0.0
2018-Feb-16 09:58N 25°48' W 080°15'0 0.0
2018-Feb-16 09:28N 25°48' W 080°15'0 0.0
2018-Feb-16 08:58N 25°48' W 080°15'0 0.0
2018-Feb-16 08:28N 25°48' W 080°15'0 0.0
2018-Feb-16 07:58N 25°48' W 080°15'0 0.0
2018-Feb-16 07:28N 25°48' W 080°15'0 0.0
2018-Feb-16 06:58N 25°48' W 080°15'0 0.0
2018-Feb-16 06:28N 25°48' W 080°15'0 0.0
2018-Feb-16 05:58N 25°48' W 080°15'0 0.0
2018-Feb-16 05:28N 25°48' W 080°15'0 0.0
2018-Feb-16 04:55N 25°48' W 080°15'0 0.0
2018-Feb-16 04:30N 25°48' W 080°15'0 0.0
2018-Feb-16 04:00N 25°48' W 080°15'0 0.0
2018-Feb-16 03:30N 25°48' W 080°15'0 0.0
2018-Feb-16 02:51N 25°48' W 080°15'0 0.0
2018-Feb-16 02:30N 25°48' W 080°15'0 0.0
2018-Feb-16 02:00N 25°48' W 080°15'0 0.0
2018-Feb-16 01:27N 25°48' W 080°15'0 0.0
2018-Feb-16 01:00N 25°48' W 080°15'0 0.0
2018-Feb-16 00:30N 25°48' W 080°15'0 0.0
2018-Feb-16 00:00N 25°48' W 080°15'0 0.0
2018-Feb-15 23:30N 25°48' W 080°15'0 0.0
2018-Feb-15 23:00N 25°48' W 080°15'0 0.0
2018-Feb-15 22:30N 25°48' W 080°15'0 0.0
2018-Feb-15 22:00N 25°48' W 080°15'0 0.0
2018-Feb-15 21:30N 25°48' W 080°15'0 0.0
2018-Feb-15 21:00N 25°48' W 080°15'0 0.0
2018-Feb-15 20:30N 25°48' W 080°15'0 0.0
2018-Feb-15 20:00N 25°48' W 080°15'0 0.0
2018-Feb-15 19:30N 25°48' W 080°15'0 0.0
2018-Feb-15 19:00N 25°48' W 080°15'0 0.0
2018-Feb-15 18:30N 25°48' W 080°15'0 0.0
2018-Feb-15 18:00N 25°48' W 080°15'0 0.0
2018-Feb-15 17:30N 25°48' W 080°15'0 0.0
2018-Feb-15 17:00N 25°48' W 080°15'0 0.0
2018-Feb-15 16:30N 25°48' W 080°15'0 0.0
2018-Feb-15 16:00N 25°48' W 080°15'0 0.0
2018-Feb-15 15:30N 25°48' W 080°15'0 0.0
2018-Feb-15 15:00N 25°48' W 080°15'0 0.0
2018-Feb-15 14:30N 25°48' W 080°15'0 0.0
2018-Feb-15 14:00N 25°48' W 080°15'0 0.0
2018-Feb-15 13:30N 25°48' W 080°15'0 0.0
2018-Feb-15 13:00N 25°48' W 080°15'0 0.0
2018-Feb-15 12:30N 25°48' W 080°15'0 0.0
2018-Feb-15 11:54N 25°48' W 080°15'0 0.0
2018-Feb-15 11:30N 25°48' W 080°15'0 0.0
2018-Feb-15 11:00N 25°48' W 080°15'0 0.0
2018-Feb-15 10:30N 25°48' W 080°15'0 0.0
2018-Feb-15 09:53N 25°48' W 080°15'0 0.0
2018-Feb-15 09:29N 25°48' W 080°15'0 0.0
2018-Feb-15 08:59N 25°48' W 080°15'0 0.0
2018-Feb-15 08:29N 25°48' W 080°15'0 0.0
2018-Feb-15 07:59N 25°48' W 080°15'0 0.0
2018-Feb-15 07:29N 25°48' W 080°15'0 0.0
2018-Feb-15 06:56N 25°48' W 080°15'0 0.0
2018-Feb-15 06:29N 25°48' W 080°15'0 0.0
2018-Feb-15 05:59N 25°48' W 080°15'0 0.0
2018-Feb-15 05:29N 25°48' W 080°15'0 0.0
2018-Feb-15 04:59N 25°48' W 080°15'0 0.0
2018-Feb-15 04:29N 25°48' W 080°15'0 0.0
2018-Feb-15 03:59N 25°48' W 080°15'0 0.0
2018-Feb-15 03:26N 25°48' W 080°15'0 0.0
2018-Feb-15 02:56N 25°48' W 080°15'0 0.0
2018-Feb-15 02:29N 25°48' W 080°15'0 0.0
2018-Feb-15 01:59N 25°48' W 080°15'0 0.0
2018-Feb-15 01:29N 25°48' W 080°15'0 0.0
2018-Feb-15 00:59N 25°48' W 080°15'0 0.0
2018-Feb-15 00:29N 25°48' W 080°15'0 0.0
2018-Feb-14 23:59N 25°48' W 080°15'0 0.0
2018-Feb-14 23:28N 25°48' W 080°15'0 0.0
2018-Feb-14 22:58N 25°48' W 080°15'0 0.0
2018-Feb-14 22:28N 25°48' W 080°15'0 0.0
2018-Feb-14 21:58N 25°48' W 080°15'0 0.0
2018-Feb-14 21:22N 25°48' W 080°15'0 0.0
2018-Feb-14 20:58N 25°48' W 080°15'0 0.0
2018-Feb-14 20:28N 25°48' W 080°15'0 0.0
2018-Feb-14 19:58N 25°48' W 080°15'0 0.0
2018-Feb-14 19:28N 25°48' W 080°15'0 0.0
2018-Feb-14 18:58N 25°48' W 080°15'0 0.0
2018-Feb-14 18:30N 25°48' W 080°15'0 0.0
2018-Feb-14 17:52N 25°48' W 080°15'0 0.0
2018-Feb-14 17:28N 25°48' W 080°15'0 0.0
2018-Feb-14 17:01N 25°48' W 080°15'0 0.0
2018-Feb-14 16:25N 25°48' W 080°15'0 0.0
2018-Feb-14 15:57N 25°48' W 080°15'0 0.0
2018-Feb-14 15:30N 25°48' W 080°15'0 0.0
2018-Feb-14 15:00N 25°48' W 080°15'0 0.0
2018-Feb-14 14:30N 25°48' W 080°15'0 0.0
2018-Feb-14 14:00N 25°48' W 080°15'0 0.0
2018-Feb-14 13:30N 25°48' W 080°15'0 0.0
2018-Feb-14 13:00N 25°48' W 080°15'0 0.0
2018-Feb-14 12:30N 25°48' W 080°15'0 0.0
2018-Feb-14 12:00N 25°48' W 080°15'0 0.0
2018-Feb-14 11:30N 25°48' W 080°15'0 0.0
2018-Feb-14 11:00N 25°48' W 080°15'0 0.0
2018-Feb-14 10:30N 25°48' W 080°15'0 0.0
2018-Feb-14 10:00N 25°48' W 080°15'0 0.0
2018-Feb-14 09:27N 25°48' W 080°15'0 0.0
2018-Feb-14 09:00N 25°48' W 080°15'0 0.0
2018-Feb-14 08:30N 25°48' W 080°15'0 0.0
2018-Feb-14 08:00N 25°48' W 080°15'0 0.0
2018-Feb-14 07:30N 25°48' W 080°15'0 0.0
2018-Feb-14 07:00N 25°48' W 080°15'0 0.0
2018-Feb-14 06:27N 25°48' W 080°15'0 0.0
2018-Feb-14 06:00N 25°48' W 080°15'0 0.0
2018-Feb-14 05:27N 25°48' W 080°15'0 0.0
2018-Feb-14 05:00N 25°48' W 080°15'0 0.0
2018-Feb-14 04:30N 25°48' W 080°15'0 0.0
2018-Feb-14 04:00N 25°48' W 080°15'0 0.0
2018-Feb-14 03:30N 25°48' W 080°15'0 0.0
2018-Feb-14 03:00N 25°48' W 080°15'0 0.0
2018-Feb-14 02:30N 25°48' W 080°15'0 0.0
2018-Feb-14 02:00N 25°48' W 080°15'0 0.0
2018-Feb-14 01:30N 25°48' W 080°15'0 0.0
2018-Feb-14 01:00N 25°48' W 080°15'0 0.0
2018-Feb-14 00:30N 25°48' W 080°15'0 0.1
2018-Feb-14 00:00N 25°48' W 080°15'0 0.1
2018-Feb-13 23:27N 25°48' W 080°15'0 0.0
2018-Feb-13 23:00N 25°48' W 080°15'0 0.0
2018-Feb-13 22:30N 25°48' W 080°15'0 0.0
2018-Feb-13 22:00N 25°48' W 080°15'0 0.0
2018-Feb-13 21:26N 25°48' W 080°15'0 0.0
2018-Feb-13 20:56N 25°48' W 080°15'0 0.0
2018-Feb-13 20:29N 25°48' W 080°15'0 0.0
2018-Feb-13 19:56N 25°48' W 080°15'0 0.0
2018-Feb-13 19:29N 25°48' W 080°15'0 0.0
2018-Feb-13 18:59N 25°48' W 080°15'0 0.0
2018-Feb-13 18:26N 25°48' W 080°15'0 0.0
2018-Feb-13 17:56N 25°48' W 080°15'0 0.0
2018-Feb-13 17:29N 25°48' W 080°15'0 0.0
2018-Feb-13 16:59N 25°48' W 080°15'0 0.0
2018-Feb-13 16:29N 25°48' W 080°15'0 0.0
2018-Feb-13 15:59N 25°48' W 080°15'0 0.0
2018-Feb-13 15:29N 25°48' W 080°15'0 0.0
2018-Feb-13 14:59N 25°48' W 080°15'0 0.0
2018-Feb-13 14:29N 25°48' W 080°15'0 0.0
2018-Feb-13 13:59N 25°48' W 080°15'0 0.0
2018-Feb-13 13:29N 25°48' W 080°15'0 0.0
2018-Feb-13 12:59N 25°48' W 080°15'0 0.0
2018-Feb-13 12:29N 25°48' W 080°15'0 0.0
2018-Feb-13 11:59N 25°48' W 080°15'0 0.0
2018-Feb-13 11:29N 25°48' W 080°15'0 0.0
2018-Feb-13 10:59N 25°48' W 080°15'0 0.0
2018-Feb-13 10:29N 25°48' W 080°15'0 0.0
2018-Feb-13 09:59N 25°48' W 080°15'0 0.0
2018-Feb-13 09:29N 25°48' W 080°15'0 0.0
2018-Feb-13 08:59N 25°48' W 080°15'0 0.0
2018-Feb-13 08:29N 25°48' W 080°15'0 0.0
2018-Feb-13 07:59N 25°48' W 080°15'0 0.0
2018-Feb-13 07:29N 25°48' W 080°15'0 0.0
2018-Feb-13 06:59N 25°48' W 080°15'0 0.0
2018-Feb-13 06:29N 25°48' W 080°15'0 0.0
2018-Feb-13 05:56N 25°48' W 080°15'0 0.0
2018-Feb-13 05:29N 25°48' W 080°15'0 0.0
2018-Feb-13 04:55N 25°48' W 080°15'0 0.0
2018-Feb-13 04:28N 25°48' W 080°15'0 0.0
2018-Feb-13 03:58N 25°48' W 080°15'0 0.0
2018-Feb-13 03:22N 25°48' W 080°15'0 0.0
2018-Feb-13 02:58N 25°48' W 080°15'0 0.0
2018-Feb-13 02:22N 25°48' W 080°15'0 0.0
2018-Feb-13 01:52N 25°48' W 080°15'0 0.0
2018-Feb-13 01:28N 25°48' W 080°15'0 0.0
2018-Feb-13 00:58N 25°48' W 080°15'0 0.0
2018-Feb-13 00:28N 25°48' W 080°15'0 0.0
2018-Feb-12 23:55N 25°48' W 080°15'0 0.0
2018-Feb-12 23:28N 25°48' W 080°15'0 0.0
2018-Feb-12 22:58N 25°48' W 080°15'0 0.0
2018-Feb-12 22:28N 25°48' W 080°15'0 0.0
2018-Feb-12 21:58N 25°48' W 080°15'0 0.0
2018-Feb-12 21:28N 25°48' W 080°15'0 0.0
2018-Feb-12 20:58N 25°48' W 080°15'0 0.0
2018-Feb-12 20:28N 25°48' W 080°15'0 0.0
2018-Feb-12 19:58N 25°48' W 080°15'0 0.0
2018-Feb-12 19:25N 25°48' W 080°15'0 0.0
2018-Feb-12 18:58N 25°48' W 080°15'0 0.0
2018-Feb-12 18:25N 25°48' W 080°15'0 0.0
2018-Feb-12 17:58N 25°48' W 080°15'0 0.0
2018-Feb-12 17:28N 25°48' W 080°15'0 0.0
2018-Feb-12 16:58N 25°48' W 080°15'0 0.0
2018-Feb-12 16:28N 25°48' W 080°15'0 0.0
2018-Feb-12 15:55N 25°48' W 080°15'0 0.0
2018-Feb-12 15:25N 25°48' W 080°15'0 0.0
2018-Feb-12 14:58N 25°48' W 080°15'0 0.0
2018-Feb-12 14:28N 25°48' W 080°15'0 0.0
2018-Feb-12 13:58N 25°48' W 080°15'0 0.0
2018-Feb-12 13:28N 25°48' W 080°15'0 0.0
2018-Feb-12 12:58N 25°48' W 080°15'0 0.0
2018-Feb-12 12:28N 25°48' W 080°15'0 0.0
2018-Feb-12 11:58N 25°48' W 080°15'0 0.0
2018-Feb-12 11:28N 25°48' W 080°15'0 0.0
2018-Feb-12 10:55N 25°48' W 080°15'0 0.0
2018-Feb-12 10:28N 25°48' W 080°15'0 0.0
2018-Feb-12 09:58N 25°48' W 080°15'0 0.0
2018-Feb-12 09:30N 25°48' W 080°15'0 0.0
2018-Feb-12 09:00N 25°48' W 080°15'0 0.0
2018-Feb-12 08:30N 25°48' W 080°15'0 0.0
2018-Feb-12 08:00N 25°48' W 080°15'0 0.0
2018-Feb-12 07:30N 25°48' W 080°15'0 0.0
2018-Feb-12 07:00N 25°48' W 080°15'0 0.0
2018-Feb-12 06:30N 25°48' W 080°15'0 0.0
2018-Feb-12 06:00N 25°48' W 080°15'0 0.0
2018-Feb-12 05:30N 25°48' W 080°15'0 0.0
2018-Feb-12 05:00N 25°48' W 080°15'0 0.0
2018-Feb-12 04:30N 25°48' W 080°15'0 0.0
2018-Feb-12 04:00N 25°48' W 080°15'0 0.0
2018-Feb-12 03:30N 25°48' W 080°15'0 0.0
2018-Feb-12 03:00N 25°48' W 080°15'0 0.0
2018-Feb-12 02:27N 25°48' W 080°15'0 0.0
2018-Feb-12 01:57N 25°48' W 080°15'0 0.0
2018-Feb-12 01:30N 25°48' W 080°15'0 0.0
2018-Feb-12 00:57N 25°48' W 080°15'0 0.0
2018-Feb-12 00:30N 25°48' W 080°15'0 0.0
2018-Feb-11 23:59N 25°48' W 080°15'0 0.0
2018-Feb-11 23:29N 25°48' W 080°15'0 0.0
2018-Feb-11 22:59N 25°48' W 080°15'0 0.0
2018-Feb-11 22:23N 25°48' W 080°15'0 0.0
2018-Feb-11 21:59N 25°48' W 080°15'0 0.0
2018-Feb-11 21:29N 25°48' W 080°15'0 0.0
2018-Feb-11 20:59N 25°48' W 080°15'0 0.0
2018-Feb-11 20:29N 25°48' W 080°15'0 0.0
2018-Feb-11 19:59N 25°48' W 080°15'0 0.0
2018-Feb-11 19:29N 25°48' W 080°15'0 0.0
2018-Feb-11 18:59N 25°48' W 080°15'0 0.0
2018-Feb-11 18:29N 25°48' W 080°15'0 0.0
2018-Feb-11 17:59N 25°48' W 080°15'0 0.0
2018-Feb-11 17:29N 25°48' W 080°15'0 0.0
2018-Feb-11 16:59N 25°48' W 080°15'0 0.0
2018-Feb-11 16:29N 25°48' W 080°15'0 0.0
2018-Feb-11 15:56N 25°48' W 080°15'0 0.0
2018-Feb-11 15:29N 25°48' W 080°15'0 0.0
2018-Feb-11 14:59N 25°48' W 080°15'0 0.0
2018-Feb-11 14:26N 25°48' W 080°15'0 0.0
2018-Feb-11 13:56N 25°48' W 080°15'0 0.0
2018-Feb-11 13:29N 25°48' W 080°15'0 0.0
2018-Feb-11 12:56N 25°48' W 080°15'0 0.0
2018-Feb-11 12:29N 25°48' W 080°15'0 0.0
2018-Feb-11 11:59N 25°48' W 080°15'0 0.0
2018-Feb-11 11:29N 25°48' W 080°15'0 0.0
2018-Feb-11 10:59N 25°48' W 080°15'0 0.0
2018-Feb-11 10:29N 25°48' W 080°15'0 0.0
2018-Feb-11 09:59N 25°48' W 080°15'0 0.0
2018-Feb-11 09:29N 25°48' W 080°15'0 0.0
2018-Feb-11 08:59N 25°48' W 080°15'0 0.0
2018-Feb-11 08:29N 25°48' W 080°15'0 0.0
2018-Feb-11 07:59N 25°48' W 080°15'0 0.0
2018-Feb-11 07:29N 25°48' W 080°15'0 0.0
2018-Feb-11 06:59N 25°48' W 080°15'0 0.0
2018-Feb-11 06:29N 25°48' W 080°15'0 0.0
2018-Feb-11 05:59N 25°48' W 080°15'0 0.0
2018-Feb-11 05:29N 25°48' W 080°15'0 0.0
2018-Feb-11 04:56N 25°48' W 080°15'0 0.0
2018-Feb-11 04:29N 25°48' W 080°15'0 0.0
2018-Feb-11 03:59N 25°48' W 080°15'0 0.0
2018-Feb-11 03:29N 25°48' W 080°15'0 0.0
2018-Feb-11 02:59N 25°48' W 080°15'0 0.0
2018-Feb-11 02:29N 25°48' W 080°15'0 0.0
2018-Feb-11 01:59N 25°48' W 080°15'0 0.0
2018-Feb-11 01:29N 25°48' W 080°15'0 0.0
2018-Feb-11 00:59N 25°48' W 080°15'0 0.0
2018-Feb-11 00:29N 25°48' W 080°15'0 0.0
2018-Feb-10 23:59N 25°48' W 080°15'0 0.0
2018-Feb-10 23:29N 25°48' W 080°15'0 0.0
2018-Feb-10 22:59N 25°48' W 080°15'0 0.0
2018-Feb-10 22:29N 25°48' W 080°15'0 0.0
2018-Feb-10 21:59N 25°48' W 080°15'0 0.0
2018-Feb-10 21:29N 25°48' W 080°15'0 0.0
2018-Feb-10 20:58N 25°48' W 080°15'0 0.0
2018-Feb-10 20:25N 25°48' W 080°15'0 0.0
2018-Feb-10 19:55N 25°48' W 080°15'0 0.0
2018-Feb-10 19:25N 25°48' W 080°15'0 0.0
2018-Feb-10 18:49N 25°48' W 080°15'0 0.0
2018-Feb-10 18:19N 25°48' W 080°15'0 0.0
2018-Feb-10 17:55N 25°48' W 080°15'0 0.0
2018-Feb-10 17:28N 25°48' W 080°15'0 0.0
2018-Feb-10 16:58N 25°48' W 080°15'0 0.0
2018-Feb-10 16:28N 25°48' W 080°15'0 0.0
2018-Feb-10 15:58N 25°48' W 080°15'0 0.0
2018-Feb-10 15:25N 25°48' W 080°15'0 0.0
2018-Feb-10 14:58N 25°48' W 080°15'0 0.0
2018-Feb-10 14:28N 25°48' W 080°15'0 0.0
2018-Feb-10 13:58N 25°48' W 080°15'0 0.0
2018-Feb-10 13:22N 25°48' W 080°15'0 0.0
2018-Feb-10 12:58N 25°48' W 080°15'0 0.0
2018-Feb-10 12:19N 25°48' W 080°15'0 0.0
2018-Feb-10 11:55N 25°48' W 080°15'0 0.0
2018-Feb-10 11:28N 25°48' W 080°15'0 0.0
2018-Feb-10 10:58N 25°48' W 080°15'0 0.0
2018-Feb-10 10:25N 25°48' W 080°15'0 0.0
2018-Feb-10 09:58N 25°48' W 080°15'0 0.0
2018-Feb-10 09:28N 25°48' W 080°15'0 0.0
2018-Feb-10 08:55N 25°48' W 080°15'0 0.0
2018-Feb-10 08:25N 25°48' W 080°15'0 0.0
2018-Feb-10 07:58N 25°48' W 080°15'0 0.0
2018-Feb-10 07:28N 25°48' W 080°15'0 0.0
2018-Feb-10 06:58N 25°48' W 080°15'0 0.0
2018-Feb-10 06:28N 25°48' W 080°15'0 0.0
2018-Feb-10 05:58N 25°48' W 080°15'0 0.0
2018-Feb-10 05:25N 25°48' W 080°15'0 0.0
2018-Feb-10 04:58N 25°48' W 080°15'0 0.0
2018-Feb-10 04:30N 25°48' W 080°15'0 0.0
2018-Feb-10 04:00N 25°48' W 080°15'0 0.0
2018-Feb-10 03:30N 25°48' W 080°15'0 0.0
2018-Feb-10 03:00N 25°48' W 080°15'0 0.0
2018-Feb-10 02:30N 25°48' W 080°15'0 0.0
2018-Feb-10 01:57N 25°48' W 080°15'0 0.0
2018-Feb-10 01:30N 25°48' W 080°15'0 0.0
2018-Feb-10 01:00N 25°48' W 080°15'0 0.0
2018-Feb-10 00:27N 25°48' W 080°15'0 0.0
2018-Feb-10 00:00N 25°48' W 080°15'0 0.0
2018-Feb-09 23:30N 25°48' W 080°15'0 0.0
2018-Feb-09 23:00N 25°48' W 080°15'0 0.0
2018-Feb-09 22:45N 25°48' W 080°15'0 0.0
2018-Feb-08 01:30N 25°48' W 080°15'0 0.0
2018-Feb-08 00:57N 25°48' W 080°15'0 0.0
2018-Feb-08 00:30N 25°48' W 080°15'  

Dump ship's entire track history